Time;durP1;ratioP1;P1;durP2;ratioP2;P2;SDS_P1;SDS_P2;PMS_P1;PMS_P2;Temp;Humidity;BMP_temperature;BMP_pressure;BME280_temperature;BME280_humidity;BME280_pressure;Samples;Min_cycle;Max_cycle;Signal;HPM_P1;HPM_P2
2023/04/03 00:00:06;;;;;;;31.73;8.40;;;12.20;99.90;;;;;;4925269;29;20038;-92
2023/04/03 00:02:33;;;;;;;27.83;9.38;;;12.30;99.90;;;;;;4941275;29;20046;-91
2023/04/03 00:05:04;;;;;;;25.35;8.95;;;12.30;99.90;;;;;;4925516;29;20070;-93
2023/04/03 00:07:31;;;;;;;25.52;8.93;;;12.50;99.90;;;;;;4943154;29;20023;-91
2023/04/03 00:10:16;;;;;;;23.45;8.18;;;12.50;99.90;;;;;;4925632;29;20031;-93
2023/04/03 00:12:46;;;;;;;24.30;8.23;;;12.50;99.90;;;;;;4941180;29;20053;-91
2023/04/03 00:15:14;;;;;;;25.90;9.25;;;12.40;99.90;;;;;;4941010;29;20038;-92
2023/04/03 00:17:41;;;;;;;32.20;9.20;;;12.50;99.90;;;;;;4925077;29;20069;-92
2023/04/03 00:20:11;;;;;;;25.35;9.25;;;12.50;99.90;;;;;;4940666;29;20035;-92
2023/04/03 00:22:41;;;;;;;24.50;8.23;;;12.50;99.90;;;;;;4941022;29;20071;-91
2023/04/03 00:25:12;;;;;;;29.67;9.30;;;12.60;99.90;;;;;;4940533;29;20051;-91
2023/04/03 00:27:40;;;;;;;27.27;8.93;;;12.60;99.90;;;;;;4925640;29;20039;-92
2023/04/03 00:30:10;;;;;;;28.75;9.27;;;12.70;99.90;;;;;;4924832;29;20062;-92
2023/04/03 00:32:37;;;;;;;31.15;10.15;;;12.70;99.90;;;;;;4924904;29;20034;-91
2023/04/03 00:35:21;;;;;;;26.20;9.25;;;12.70;99.90;;;;;;4925232;29;20083;-92
2023/04/03 00:37:56;;;;;;;37.50;10.57;;;12.60;99.90;;;;;;4925368;29;20118;-91
2023/04/03 00:40:26;;;;;;;26.33;9.52;;;12.60;99.90;;;;;;4924736;29;20054;-91
2023/04/03 00:42:58;;;;;;;31.08;9.15;;;12.60;99.90;;;;;;4924680;29;20489;-93
2023/04/03 00:45:32;;;;;;;34.35;10.80;;;12.60;99.90;;;;;;4925486;29;20055;-93
2023/04/03 00:48:06;;;;;;;34.20;10.23;;;12.60;99.90;;;;;;4925006;29;20127;-92
2023/04/03 00:50:40;;;;;;;28.25;9.55;;;12.60;99.90;;;;;;4925396;29;20035;-92
2023/04/03 00:53:16;;;;;;;27.10;9.60;;;12.60;99.90;;;;;;4924654;29;20397;-91
2023/04/03 00:55:50;;;;;;;31.35;10.38;;;12.60;99.90;;;;;;4887602;29;20060;-91
2023/04/03 00:58:20;;;;;;;31.13;9.55;;;12.60;99.90;;;;;;4887023;29;20079;-92
2023/04/03 01:00:57;;;;;;;31.70;9.30;;;12.50;99.90;;;;;;4902659;29;20036;-91
2023/04/03 01:03:25;;;;;;;22.50;9.45;;;12.50;99.90;;;;;;4886702;29;20033;-93
2023/04/03 01:05:57;;;;;;;35.53;10.43;;;12.50;99.90;;;;;;4902443;29;20087;-92
2023/04/03 01:08:33;;;;;;;26.60;9.55;;;12.60;99.90;;;;;;4887270;29;20029;-93
2023/04/03 01:11:04;;;;;;;24.80;9.27;;;12.60;99.90;;;;;;4888427;29;20040;-93
2023/04/03 01:13:33;;;;;;;27.90;9.30;;;12.60;99.90;;;;;;4901872;29;20064;-92
2023/04/03 01:16:05;;;;;;;22.85;8.75;;;12.70;99.90;;;;;;4902034;29;20032;-92
2023/04/03 01:18:36;;;;;;;26.60;9.18;;;12.70;99.90;;;;;;4901951;29;20032;-94
2023/04/03 01:21:27;;;;;;;28.38;9.07;;;12.70;99.90;;;;;;4901954;29;20604;-91
2023/04/03 01:24:04;;;;;;;30.35;8.82;;;12.70;99.90;;;;;;4892072;29;20090;-92
2023/04/03 01:26:34;;;;;;;25.17;8.15;;;12.70;99.90;;;;;;4920613;29;20051;-91
2023/04/03 01:29:01;;;;;;;23.25;9.50;;;12.80;99.90;;;;;;4920561;29;20035;-93
2023/04/03 01:31:40;;;;;;;30.55;8.75;;;12.80;99.90;;;;;;4920865;29;20028;-91
2023/04/03 01:34:07;;;;;;;35.17;10.02;;;12.80;99.90;;;;;;4920760;29;20477;-92
2023/04/03 01:36:34;;;;;;;26.13;9.15;;;12.80;99.90;;;;;;4904793;29;20028;-92
2023/04/03 01:39:01;;;;;;;29.48;9.20;;;12.80;99.90;;;;;;4921482;29;20078;-92
2023/04/03 01:41:29;;;;;;;28.55;9.07;;;12.80;99.90;;;;;;4921520;29;20036;-92
2023/04/03 01:44:04;;;;;;;23.95;8.20;;;12.80;99.90;;;;;;4921581;29;20175;-93
2023/04/03 01:46:32;;;;;;;30.38;9.85;;;12.90;99.90;;;;;;4920898;29;20031;-92
2023/04/03 01:48:59;;;;;;;28.73;8.63;;;12.90;99.90;;;;;;4920636;29;20031;-92
2023/04/03 01:51:29;;;;;;;29.27;8.48;;;12.80;99.90;;;;;;4920178;29;20035;-92
2023/04/03 01:53:56;;;;;;;31.88;8.30;;;12.80;99.90;;;;;;4920712;29;20039;-92
2023/04/03 01:56:22;;;;;;;29.65;8.23;;;12.80;99.90;;;;;;4920414;29;20027;-92
2023/04/03 01:58:56;;;;;;;25.25;8.45;;;12.90;99.90;;;;;;4920432;29;20500;-91
2023/04/03 02:01:23;;;;;;;28.35;7.93;;;12.80;99.90;;;;;;4920127;29;20038;-93
2023/04/03 02:03:50;;;;;;;28.77;7.80;;;12.80;99.90;;;;;;4920080;29;20038;-92
2023/04/03 02:06:17;;;;;;;30.67;7.15;;;12.80;99.90;;;;;;4921359;29;20042;-94
2023/04/03 02:08:44;;;;;;;28.50;6.75;;;12.80;99.90;;;;;;4924196;29;20036;-91
2023/04/03 02:11:11;;;;;;;28.13;6.60;;;12.80;99.90;;;;;;4924175;29;20039;-92
2023/04/03 02:13:38;;;;;;;26.10;6.40;;;12.80;99.90;;;;;;4924358;29;20055;-92
2023/04/03 02:16:12;;;;;;;27.42;6.47;;;12.80;99.90;;;;;;4924269;29;20074;-91
2023/04/03 02:18:39;;;;;;;29.98;6.05;;;12.90;99.90;;;;;;4924288;29;20110;-91
2023/04/03 02:21:06;;;;;;;20.00;5.53;;;13.00;99.90;;;;;;4924319;29;20028;-91
2023/04/03 02:23:33;;;;;;;44.05;7.97;;;13.00;99.90;;;;;;4923918;29;20493;-92
2023/04/03 02:26:09;;;;;;;23.88;6.18;;;13.00;99.90;;;;;;4924344;29;20051;-93
2023/04/03 02:28:36;;;;;;;27.30;5.60;;;13.00;99.90;;;;;;4923966;29;20058;-92
2023/04/03 02:31:04;;;;;;;30.15;7.22;;;13.00;99.90;;;;;;4924156;29;20034;-93
2023/04/03 02:33:31;;;;;;;27.85;5.90;;;13.10;99.90;;;;;;4927646;29;20047;-92
2023/04/03 02:35:59;;;;;;;29.55;6.10;;;13.10;99.90;;;;;;4932091;29;20110;-92
2023/04/03 02:38:29;;;;;;;38.35;6.82;;;13.10;99.90;;;;;;4929608;29;20028;-92
2023/04/03 02:41:07;;;;;;;31.67;6.32;;;13.10;99.90;;;;;;4927124;29;20039;-92
2023/04/03 02:43:40;;;;;;;24.38;6.10;;;13.20;99.90;;;;;;4924388;29;20493;-91
2023/04/03 02:46:07;;;;;;;28.17;6.03;;;13.20;99.90;;;;;;4923792;29;20043;-92
2023/04/03 02:48:37;;;;;;;22.92;6.00;;;13.20;99.90;;;;;;4923808;29;20031;-91
2023/04/03 02:51:07;;;;;;;22.08;4.97;;;13.20;99.90;;;;;;4923493;29;20442;-93
2023/04/03 02:53:37;;;;;;;24.80;5.47;;;13.10;99.90;;;;;;4924092;29;20032;-91
2023/04/03 02:56:10;;;;;;;28.33;6.03;;;13.10;99.90;;;;;;4923291;29;20063;-93
2023/04/03 03:01:44;;;;;;;27.10;5.43;;;13.20;99.90;;;;;;4863645;29;20101;-93
2023/04/03 03:04:33;;;;;;;;;;;;;;;;;;;;;
2023/04/03 03:10:46;;;;;;;21.15;4.68;;;13.20;99.90;;;;;;4826492;29;20564;-92
2023/04/03 03:13:16;;;;;;;25.95;5.40;;;13.20;99.90;;;;;;4812062;29;20129;-91
2023/04/03 03:15:46;;;;;;;20.65;5.53;;;13.20;99.90;;;;;;4812357;29;20538;-92
2023/04/03 03:18:24;;;;;;;22.80;4.72;;;13.20;99.90;;;;;;4810981;29;20038;-92
2023/04/03 03:20:53;;;;;;;28.95;5.90;;;13.20;99.90;;;;;;4811035;29;20039;-91
2023/04/03 03:43:20;;;;;;;;;;;;;;;;;;;;;
2023/04/03 03:46:29;;;;;;;28.98;4.75;;;13.10;99.90;;;;;;4826027;29;20038;-92
2023/04/03 03:49:07;;;;;;;22.35;5.10;;;13.10;99.90;;;;;;4807500;29;20042;-94
2023/04/03 03:51:56;;;;;;;24.10;5.15;;;13.00;99.90;;;;;;4806689;29;20076;-94
2023/04/03 03:54:35;;;;;;;25.55;5.20;;;13.00;99.90;;;;;;4792951;29;20531;-95
2023/04/03 03:57:26;;;;;;;30.95;5.55;;;13.00;99.90;;;;;;4807822;29;20082;-92
2023/04/03 04:00:00;;;;;;;30.75;5.75;;;12.90;99.90;;;;;;4808040;29;20027;-94
2023/04/03 04:02:52;;;;;;;30.63;6.28;;;12.90;99.90;;;;;;4810266;29;20039;-94
2023/04/03 04:05:42;;;;;;;22.35;5.20;;;12.90;99.90;;;;;;4797750;29;20051;-94
2023/04/03 04:08:13;;;;;;;25.98;6.55;;;12.90;99.90;;;;;;4765730;30;20070;-93
2023/04/03 04:10:40;;;;;;;27.83;5.93;;;12.90;99.90;;;;;;4774194;30;20083;-92
2023/04/03 04:13:08;;;;;;;24.27;5.10;;;12.90;99.90;;;;;;4759604;30;20070;-93
2023/04/03 04:15:34;;;;;;;27.80;6.55;;;12.80;99.90;;;;;;4788973;29;20027;-93
2023/04/03 04:18:04;;;;;;;28.05;5.63;;;12.80;99.90;;;;;;4770646;29;20176;-93
2023/04/03 04:20:35;;;;;;;22.80;5.80;;;12.80;99.90;;;;;;4810832;29;20037;-93
2023/04/03 04:23:02;;;;;;;22.42;5.30;;;12.80;99.90;;;;;;4830087;29;20136;-93
2023/04/03 04:25:36;;;;;;;29.42;6.05;;;12.80;99.90;;;;;;4869179;29;20053;-95
2023/04/03 04:28:15;;;;;;;32.67;5.90;;;12.70;99.90;;;;;;4896091;29;20072;-93
2023/04/03 04:30:44;;;;;;;23.23;5.97;;;12.70;99.90;;;;;;4878073;29;20051;-93
2023/04/03 04:33:11;;;;;;;28.60;6.13;;;12.60;99.90;;;;;;4861033;29;20022;-93
2023/04/03 04:35:39;;;;;;;22.65;5.93;;;12.60;99.90;;;;;;4846188;29;20073;-93
2023/04/03 04:38:06;;;;;;;20.52;5.95;;;12.60;99.90;;;;;;4846135;29;20073;-93
2023/04/03 04:40:33;;;;;;;29.80;5.97;;;12.60;99.90;;;;;;4845884;29;20041;-94
2023/04/03 04:42:59;;;;;;;22.45;6.07;;;12.50;99.90;;;;;;4892091;29;20051;-94
2023/04/03 04:45:26;;;;;;;21.27;5.72;;;12.50;99.90;;;;;;4926666;29;20536;-92
2023/04/03 04:47:56;;;;;;;36.25;6.95;;;12.50;99.90;;;;;;4924637;29;20476;-94
2023/04/03 04:50:24;;;;;;;23.70;6.47;;;12.50;99.90;;;;;;4934916;29;20034;-93
2023/04/03 04:52:51;;;;;;;22.75;6.35;;;12.50;99.90;;;;;;4940183;29;20070;-93
2023/04/03 04:55:18;;;;;;;31.60;7.07;;;12.50;99.90;;;;;;4939979;29;20038;-94
2023/04/03 04:57:48;;;;;;;25.60;5.75;;;12.50;99.90;;;;;;4941115;29;20027;-95
2023/04/03 05:00:16;;;;;;;30.20;7.07;;;12.50;99.90;;;;;;4941028;23;20523;-94
2023/04/03 05:03:03;;;;;;;30.13;6.43;;;12.50;99.90;;;;;;4948570;29;20389;-94
2023/04/03 05:05:35;;;;;;;31.38;7.07;;;12.40;99.90;;;;;;4943375;29;20046;-94
2023/04/03 05:08:03;;;;;;;30.45;7.32;;;12.40;99.90;;;;;;4924018;29;20027;-94
2023/04/03 05:10:30;;;;;;;23.05;6.72;;;12.40;99.90;;;;;;4941588;29;20031;-95
2023/04/03 05:12:58;;;;;;;28.98;6.80;;;12.40;99.90;;;;;;4946942;28;20551;-93
2023/04/03 05:15:25;;;;;;;28.67;7.10;;;12.50;99.90;;;;;;4956127;28;20067;-94
2023/04/03 05:17:52;;;;;;;21.52;7.20;;;12.50;99.90;;;;;;4956108;29;20020;-94
2023/04/03 05:20:21;;;;;;;30.33;6.88;;;12.50;99.90;;;;;;4934641;29;20051;-94
2023/04/03 05:22:49;;;;;;;31.05;7.35;;;12.40;99.90;;;;;;4940451;29;20027;-93
2023/04/03 05:25:16;;;;;;;32.22;7.97;;;12.50;99.90;;;;;;4940215;29;20117;-94
2023/04/03 05:27:44;;;;;;;35.42;8.20;;;12.50;99.90;;;;;;4947237;29;20027;-94
2023/04/03 05:30:11;;;;;;;33.83;9.13;;;12.40;99.90;;;;;;4955573;29;20035;-95
2023/04/03 05:32:41;;;;;;;39.17;8.95;;;12.50;99.90;;;;;;4956016;28;20097;-94
2023/04/03 05:35:19;;;;;;;33.22;9.60;;;12.50;99.90;;;;;;4956151;28;20066;-94
2023/04/03 05:37:49;;;;;;;31.65;8.68;;;12.50;99.90;;;;;;4955803;28;20035;-94
2023/04/03 05:40:18;;;;;;;37.70;10.77;;;12.50;99.90;;;;;;4950078;29;20047;-95
2023/04/03 05:42:49;;;;;;;30.08;9.48;;;12.50;99.90;;;;;;4940169;29;20031;-94
2023/04/03 05:45:19;;;;;;;27.85;9.32;;;12.50;99.90;;;;;;4942973;28;20035;-94
2023/04/03 05:47:47;;;;;;;34.47;10.73;;;12.60;99.90;;;;;;4956115;28;20023;-95
2023/04/03 05:50:49;;;;;;;34.10;10.88;;;12.60;99.90;;;;;;5265400;23;21039;-94
2023/04/03 05:53:32;;;;;;;32.55;10.18;;;12.60;99.90;;;;;;4948729;28;20042;-92
2023/04/03 05:56:02;;;;;;;26.20;10.27;;;12.50;99.90;;;;;;4958467;28;20035;-92
2023/04/03 05:58:31;;;;;;;27.63;10.23;;;12.50;99.90;;;;;;4958570;28;20054;-95
2023/04/03 06:00:58;;;;;;;30.67;10.43;;;12.60;99.90;;;;;;4943088;28;20023;-92
2023/04/03 06:03:25;;;;;;;32.58;11.77;;;12.60;99.90;;;;;;4958470;28;20121;-93
2023/04/03 06:05:52;;;;;;;30.88;10.90;;;12.60;99.90;;;;;;4942485;28;20038;-93
2023/04/03 06:08:19;;;;;;;37.90;10.98;;;12.70;99.90;;;;;;4958244;28;20109;-92
2023/04/03 06:10:45;;;;;;;32.70;11.52;;;12.70;99.90;;;;;;4942511;28;20033;-93
2023/04/03 06:13:12;;;;;;;36.55;11.05;;;12.60;99.90;;;;;;4942646;28;20042;-92
2023/04/03 06:21:32;;;;;;;27.50;10.68;;;12.70;99.90;;;;;;4936866;29;20062;-93
2023/04/03 06:24:00;;;;;;;27.67;10.40;;;12.70;99.90;;;;;;4995263;23;20052;-93
2023/04/03 06:26:27;;;;;;;32.90;10.52;;;12.80;99.90;;;;;;4939618;29;20039;-93
2023/04/03 06:28:53;;;;;;;26.52;10.45;;;12.70;99.90;;;;;;4923721;29;20032;-94
2023/04/03 06:31:20;;;;;;;29.65;10.60;;;12.80;99.90;;;;;;4923824;29;20062;-93
2023/04/03 06:33:56;;;;;;;38.50;11.68;;;12.70;99.90;;;;;;4925762;29;20087;-92
2023/04/03 06:37:01;;;;;;;32.90;12.75;;;12.80;99.90;;;;;;4941629;23;20061;-86
2023/04/03 06:39:30;;;;;;;28.50;10.77;;;12.70;99.90;;;;;;4938917;29;20031;-85
2023/04/03 06:42:00;;;;;;;31.02;9.80;;;12.70;99.90;;;;;;4923143;29;20027;-87
2023/04/03 06:44:35;;;;;;;32.70;9.18;;;12.60;99.90;;;;;;4939534;29;20569;-89
2023/04/03 06:47:04;;;;;;;30.95;9.45;;;12.60;99.90;;;;;;4925305;29;20039;-88
2023/04/03 08:08:37;;;;;;;29.17;17.77;;;12.20;99.90;;;;;;5185358;23;20054;-93
2023/04/03 08:11:05;;;;;;;23.92;18.25;;;12.00;99.90;;;;;;4959769;28;20464;-90
2023/04/03 08:13:34;;;;;;;19.08;16.98;;;12.00;99.90;;;;;;4946641;28;20030;-92
2023/04/03 08:16:10;;;;;;;18.02;15.43;;;12.00;99.90;;;;;;4944468;28;20027;-93
2023/04/03 08:18:38;;;;;;;26.38;15.52;;;12.00;99.90;;;;;;4940715;29;20031;-93
2023/04/03 08:21:07;;;;;;;21.90;15.15;;;12.00;99.90;;;;;;4940936;29;20052;-93
2023/04/03 08:23:33;;;;;;;27.33;14.43;;;12.00;99.90;;;;;;4940716;29;20027;-93
2023/04/03 08:26:04;;;;;;;25.67;15.80;;;12.00;99.90;;;;;;4940617;29;20134;-92
2023/04/03 08:28:31;;;;;;;26.75;16.88;;;12.00;99.90;;;;;;4940741;29;20031;-93
2023/04/03 08:31:04;;;;;;;28.75;15.95;;;12.10;99.90;;;;;;4940613;29;20031;-93
2023/04/03 08:33:30;;;;;;;16.75;14.55;;;12.10;99.90;;;;;;4940489;29;20027;-95
2023/04/03 08:35:56;;;;;;;25.10;14.13;;;12.10;99.90;;;;;;4940444;29;20027;-95
2023/04/03 08:38:23;;;;;;;25.90;14.18;;;12.20;99.90;;;;;;4940631;29;20039;-93
2023/04/03 08:41:18;;;;;;;22.67;14.23;;;12.20;99.90;;;;;;4940478;29;20492;-92
2023/04/03 08:44:06;;;;;;;25.13;13.65;;;12.20;99.90;;;;;;4956530;29;20038;-93
2023/04/03 08:47:14;;;;;;;21.25;14.05;;;12.20;99.90;;;;;;4956479;28;20591;-92
2023/04/03 08:50:21;;;;;;;22.20;14.30;;;12.30;99.90;;;;;;4940403;29;20466;-92
2023/04/03 08:52:53;;;;;;;22.52;12.40;;;12.30;99.90;;;;;;4864408;29;20073;-93
2023/04/03 08:55:23;;;;;;;24.73;14.38;;;12.30;99.90;;;;;;4876592;29;20056;-93
2023/04/03 08:57:58;;;;;;;22.75;12.60;;;12.40;99.90;;;;;;4846044;29;20033;-93
2023/04/03 09:00:28;;;;;;;21.35;12.57;;;12.30;99.90;;;;;;4845999;29;20033;-93
2023/04/03 09:02:56;;;;;;;21.02;13.50;;;12.30;99.90;;;;;;4845716;29;20128;-92
2023/04/03 09:05:40;;;;;;;20.08;12.25;;;12.40;99.90;;;;;;4845415;29;20567;-93
2023/04/03 09:08:18;;;;;;;28.08;11.70;;;12.30;99.90;;;;;;4845757;29;20479;-94
2023/04/03 09:14:36;;;;;;;18.15;10.82;;;12.20;99.90;;;;;;5014359;23;20050;-93
2023/04/03 09:17:15;;;;;;;20.83;10.30;;;12.30;99.90;;;;;;5015048;23;20051;-94
2023/04/03 09:20:18;;;;;;;15.18;9.20;;;12.50;99.90;;;;;;4931140;29;20059;-94
2023/04/03 09:22:44;;;;;;;21.42;10.30;;;12.50;99.90;;;;;;4939937;29;20031;-93
2023/04/03 09:25:33;;;;;;;21.63;10.10;;;12.50;99.90;;;;;;4924753;29;20036;-93
2023/04/03 09:28:04;;;;;;;25.30;10.90;;;12.40;99.90;;;;;;4920956;29;20039;-92
2023/04/03 09:30:34;;;;;;;11.13;8.70;;;12.40;99.90;;;;;;4923744;29;20024;-93
2023/04/03 09:33:01;;;;;;;15.45;9.43;;;12.40;99.90;;;;;;4905958;29;20047;-93
2023/04/03 09:35:31;;;;;;;14.82;12.20;;;12.30;99.90;;;;;;4905286;29;20024;-93
2023/04/03 09:38:02;;;;;;;14.90;12.00;;;12.30;99.90;;;;;;4921380;29;20055;-89
2023/04/03 09:40:38;;;;;;;16.88;10.27;;;12.30;99.90;;;;;;4905502;29;20039;-93
2023/04/03 09:43:30;;;;;;;15.52;10.57;;;12.40;99.90;;;;;;4920508;29;20028;-92
2023/04/03 09:46:18;;;;;;;14.57;9.93;;;12.50;99.90;;;;;;4904401;29;20039;-93
2023/04/03 09:49:00;;;;;;;16.10;9.80;;;12.50;99.90;;;;;;4916052;29;20054;-93
2023/04/03 09:51:31;;;;;;;10.07;8.90;;;12.50;99.90;;;;;;4920491;29;20032;-93
2023/04/03 09:53:58;;;;;;;12.07;10.60;;;12.50;99.90;;;;;;4904699;29;20028;-92
2023/04/03 09:56:28;;;;;;;10.80;9.75;;;12.40;99.90;;;;;;4920223;29;20115;-93
2023/04/03 09:58:59;;;;;;;12.07;9.63;;;12.50;99.90;;;;;;4920408;29;20031;-93
2023/04/03 10:01:35;;;;;;;20.45;10.63;;;12.50;99.90;;;;;;4920198;29;20098;-93
2023/04/03 10:04:07;;;;;;;14.50;9.63;;;12.50;99.90;;;;;;4904368;29;20039;-93
2023/04/03 10:06:37;;;;;;;19.17;9.23;;;12.50;99.90;;;;;;4916650;29;20040;-93
2023/04/03 10:09:15;;;;;;;12.73;8.48;;;12.60;99.90;;;;;;4916961;29;20091;-94
2023/04/03 10:12:04;;;;;;;16.98;7.78;;;12.70;99.90;;;;;;4917258;29;20421;-92
2023/04/03 10:14:38;;;;;;;14.90;7.40;;;12.80;99.90;;;;;;4916617;29;20115;-93
2023/04/03 10:17:04;;;;;;;;;;;13.00;99.90;;;;;;4916857;29;20051;-93
2023/04/03 10:19:50;;;;;;;25.85;6.32;;;13.30;99.90;;;;;;4916882;29;20376;-94
2023/04/03 10:22:40;;;;;;;23.60;5.72;;;13.60;99.90;;;;;;4916779;29;20036;-93
2023/04/03 10:25:13;;;;;;;9.90;6.22;;;13.90;99.90;;;;;;4900786;29;20044;-91
2023/04/03 10:27:55;;;;;;;11.50;5.75;;;14.00;99.90;;;;;;4886869;29;20485;-92
2023/04/03 10:30:36;;;;;;;14.68;5.80;;;13.70;99.90;;;;;;4889185;29;20028;-92
2023/04/03 10:33:06;;;;;;;7.63;6.30;;;14.00;99.90;;;;;;4889335;29;20032;-93
2023/04/03 10:35:49;;;;;;;12.68;6.50;;;14.10;99.90;;;;;;4904664;29;20033;-93
2023/04/03 10:38:34;;;;;;;13.90;7.35;;;14.20;99.90;;;;;;4920051;29;20036;-93
2023/04/03 10:41:12;;;;;;;17.65;7.80;;;14.30;99.90;;;;;;4889311;29;20059;-93
2023/04/03 10:43:44;;;;;;;17.05;8.43;;;14.30;99.90;;;;;;4920486;29;20122;-94
2023/04/03 10:46:35;;;;;;;11.93;8.95;;;14.20;99.90;;;;;;4920091;29;20044;-93
2023/04/03 10:49:25;;;;;;;11.35;8.38;;;14.10;99.90;;;;;;4920095;29;20040;-93
2023/04/03 10:52:10;;;;;;;14.30;9.15;;;14.00;99.90;;;;;;4888809;29;20044;-93
2023/04/03 10:54:44;;;;;;;14.88;8.30;;;14.10;99.90;;;;;;4920164;29;20130;-93
2023/04/03 10:57:12;;;;;;;11.70;8.35;;;14.00;99.90;;;;;;4919978;29;20060;-93
2023/04/03 10:59:41;;;;;;;13.50;7.32;;;14.00;99.90;;;;;;4919848;29;20490;-93
2023/04/03 11:02:18;;;;;;;16.77;6.32;;;14.00;99.90;;;;;;4888722;29;20036;-93
2023/04/03 11:04:50;;;;;;;12.20;5.15;;;14.10;99.90;;;;;;4920140;29;20032;-92
2023/04/03 11:07:30;;;;;;;7.47;4.97;;;14.30;99.90;;;;;;4921351;29;20074;-93
2023/04/03 11:10:12;;;;;;;9.07;4.80;;;14.30;99.90;;;;;;4920740;29;20504;-93
2023/04/03 11:12:45;;;;;;;5.10;4.53;;;14.10;99.90;;;;;;4919765;29;20032;-92
2023/04/03 11:15:18;;;;;;;5.80;4.35;;;14.10;99.90;;;;;;4920167;29;20032;-92
2023/04/03 11:17:55;;;;;;;8.73;4.30;;;14.20;99.90;;;;;;4919306;29;20147;-93
2023/04/03 11:20:33;;;;;;;11.45;4.68;;;14.40;99.90;;;;;;4919689;29;20126;-92
2023/04/03 11:23:16;;;;;;;9.30;4.68;;;14.40;99.90;;;;;;4919445;29;20040;-92
2023/04/03 11:25:43;;;;;;;8.10;4.95;;;14.20;99.90;;;;;;4919330;29;20044;-90
2023/04/03 11:28:14;;;;;;;6.60;4.50;;;14.00;99.90;;;;;;4919699;29;20043;-91
2023/04/03 11:31:07;;;;;;;6.10;3.95;;;13.80;99.90;;;;;;4903707;29;20036;-91
2023/04/03 11:33:52;;;;;;;9.63;4.45;;;13.60;99.90;;;;;;4888126;29;20028;-91
2023/04/03 11:36:23;;;;;;;17.75;3.75;;;13.60;99.90;;;;;;4887890;29;20115;-91
2023/04/03 11:38:54;;;;;;;9.07;2.95;;;13.50;99.90;;;;;;4903188;29;20044;-91
2023/04/03 11:41:29;;;;;;;8.73;2.63;;;13.50;99.90;;;;;;4919414;29;20028;-91
2023/04/03 11:44:05;;;;;;;6.75;2.72;;;13.50;99.90;;;;;;4919157;29;20554;-91
2023/04/03 11:46:55;;;;;;;6.15;2.75;;;13.50;99.90;;;;;;4918956;29;20054;-91
2023/04/03 11:49:59;;;;;;;7.22;2.88;;;13.40;99.90;;;;;;4937080;29;20038;-90
2023/04/03 11:52:42;;;;;;;8.68;2.95;;;13.40;99.90;;;;;;4937839;29;20070;-91
2023/04/03 11:55:21;;;;;;;13.25;3.15;;;13.40;99.90;;;;;;4938056;29;20069;-91
2023/04/03 11:57:57;;;;;;;14.23;3.17;;;13.70;99.90;;;;;;4937981;29;20066;-91
2023/04/03 12:00:46;;;;;;;9.68;3.00;;;13.80;99.90;;;;;;4937833;29;20481;-93
2023/04/03 12:03:45;;;;;;;11.20;2.72;;;13.60;99.90;;;;;;4939056;29;20139;-91
2023/04/03 12:06:15;;;;;;;13.65;8.68;;;13.30;99.90;;;;;;4902909;29;20052;-92
2023/04/03 12:08:42;;;;;;;9.75;6.63;;;13.00;99.90;;;;;;4937613;29;20035;-91
2023/04/03 12:11:11;;;;;;;16.58;7.03;;;13.00;99.90;;;;;;4937569;29;20052;-90
2023/04/03 12:13:44;;;;;;;17.10;7.07;;;13.10;99.90;;;;;;4922069;29;20056;-91
2023/04/03 12:16:28;;;;;;;11.60;6.25;;;13.20;99.90;;;;;;4937596;29;20518;-90
2023/04/03 12:19:00;;;;;;;12.20;5.90;;;13.30;99.90;;;;;;4937388;29;20059;-91
2023/04/03 12:21:29;;;;;;;11.85;5.13;;;13.40;99.90;;;;;;4937532;29;20074;-91
2023/04/03 12:24:08;;;;;;;13.75;6.55;;;13.30;99.90;;;;;;4937361;29;20028;-92
2023/04/03 12:26:51;;;;;;;9.40;5.60;;;13.40;99.90;;;;;;4937081;29;20488;-93
2023/04/03 12:29:28;;;;;;;23.05;16.80;;;13.50;99.90;;;;;;4937199;29;20028;-93
2023/04/03 12:32:03;;;;;;;20.10;13.60;;;13.20;99.90;;;;;;4921575;29;20035;-92
2023/04/03 12:34:44;;;;;;;15.10;12.75;;;12.80;99.90;;;;;;4937993;29;20031;-91
2023/04/03 12:37:37;;;;;;;12.88;11.65;;;12.70;99.90;;;;;;4937385;29;20042;-92
2023/04/03 12:40:09;;;;;;;11.60;10.45;;;12.30;99.90;;;;;;4937221;29;20620;-91
2023/04/03 12:42:53;;;;;;;10.82;9.80;;;12.30;99.90;;;;;;4936997;29;20031;-91
2023/04/03 12:45:25;;;;;;;15.07;8.48;;;12.20;99.90;;;;;;4921194;29;20574;-91
2023/04/03 12:47:55;;;;;;;14.05;8.73;;;12.30;99.90;;;;;;4920959;29;20074;-92
2023/04/03 12:50:32;;;;;;;10.02;8.60;;;12.30;99.90;;;;;;4920614;29;20031;-89
2023/04/03 12:53:41;;;;;;;11.55;8.40;;;12.30;99.90;;;;;;4936878;29;20370;-91
2023/04/03 12:56:27;;;;;;;9.98;6.68;;;12.40;99.90;;;;;;4879905;29;20078;-89
2023/04/03 12:58:57;;;;;;;10.98;6.53;;;12.40;99.90;;;;;;4879366;29;20059;-90
2023/04/03 13:01:25;;;;;;;11.88;7.22;;;12.50;99.90;;;;;;4879622;29;20040;-90
2023/04/03 13:03:57;;;;;;;10.85;6.45;;;12.60;99.90;;;;;;4879383;29;20029;-90
2023/04/03 13:06:32;;;;;;;9.93;5.50;;;12.40;99.90;;;;;;4879513;29;20140;-89
2023/04/03 13:09:00;;;;;;;13.45;5.55;;;12.30;99.90;;;;;;4864958;29;20032;-91
2023/04/03 13:11:34;;;;;;;13.93;5.13;;;12.30;99.90;;;;;;4863959;29;20053;-90
2023/04/03 13:14:13;;;;;;;11.68;5.15;;;12.30;99.90;;;;;;4864102;29;20037;-90
2023/04/03 13:16:41;;;;;;;12.75;6.00;;;12.30;99.90;;;;;;4863708;29;20082;-91
2023/04/03 13:19:17;;;;;;;20.60;4.75;;;12.40;99.90;;;;;;4860961;29;20092;-92
2023/04/03 13:21:46;;;;;;;16.80;4.55;;;12.50;99.90;;;;;;4845516;29;20029;-90
2023/04/03 13:24:13;;;;;;;12.27;4.15;;;12.40;99.90;;;;;;4845284;29;20038;-90
2023/04/03 13:26:39;;;;;;;17.35;3.83;;;12.40;99.90;;;;;;4845000;29;20045;-91
2023/04/03 13:29:19;;;;;;;10.38;3.60;;;12.50;99.90;;;;;;4848324;29;20021;-90
2023/04/03 13:31:52;;;;;;;16.63;4.32;;;12.50;99.90;;;;;;4890106;29;20040;-89
2023/04/03 13:34:22;;;;;;;8.18;3.95;;;12.50;99.90;;;;;;4936746;29;20031;-79
2023/04/03 13:36:54;;;;;;;11.95;4.20;;;12.60;99.90;;;;;;4921171;29;20037;-76
2023/04/03 13:39:25;;;;;;;10.00;3.78;;;12.60;99.90;;;;;;4938790;29;20059;-79
2023/04/03 13:42:17;;;;;;;17.67;4.03;;;12.60;99.90;;;;;;4939117;29;20071;-82
2023/04/03 13:44:44;;;;;;;17.23;4.32;;;12.60;99.90;;;;;;4937878;29;20023;-80
2023/04/03 13:47:25;;;;;;;16.02;4.30;;;12.70;99.90;;;;;;4922061;29;20091;-82
2023/04/03 13:53:55;;;;;;;16.13;3.95;;;12.60;99.90;;;;;;4905731;29;20087;-93
2023/04/03 13:56:37;;;;;;;11.30;3.80;;;12.50;99.90;;;;;;4904675;29;20044;-91
2023/04/03 13:59:13;;;;;;;14.73;3.85;;;12.50;99.90;;;;;;4901316;29;20413;-91
2023/04/03 14:01:45;;;;;;;16.55;4.28;;;12.40;99.90;;;;;;4901226;29;20032;-94
2023/04/03 14:04:19;;;;;;;8.98;4.15;;;12.40;99.90;;;;;;4901224;29;20118;-91
2023/04/03 14:06:49;;;;;;;16.80;4.47;;;12.30;99.90;;;;;;4901679;29;20024;-93
2023/04/03 14:09:17;;;;;;;15.63;4.25;;;12.20;99.90;;;;;;4916930;29;20060;-92
2023/04/03 14:11:45;;;;;;;11.80;3.72;;;12.20;99.90;;;;;;4901603;29;20114;-91
2023/04/03 14:14:26;;;;;;;10.18;4.22;;;12.20;99.90;;;;;;4901307;29;20032;-91
2023/04/03 14:16:58;;;;;;;10.85;4.20;;;12.20;99.90;;;;;;4913473;29;20121;-91
2023/04/03 14:19:34;;;;;;;8.95;4.47;;;12.20;99.90;;;;;;4951857;29;20032;-93
2023/04/03 14:22:11;;;;;;;12.50;4.60;;;12.30;99.90;;;;;;4951764;29;20032;-91
2023/04/03 14:24:39;;;;;;;12.18;4.85;;;12.40;99.90;;;;;;4952450;29;20028;-92
2023/04/03 14:27:17;;;;;;;5.93;3.60;;;12.30;99.90;;;;;;4921647;29;20024;-93
2023/04/03 14:29:44;;;;;;;10.63;4.90;;;12.10;99.90;;;;;;4954336;29;20035;-91
2023/04/03 14:32:16;;;;;;;11.27;5.30;;;12.00;99.90;;;;;;4953174;29;20036;-91
2023/04/03 14:34:52;;;;;;;9.45;5.88;;;12.00;99.90;;;;;;4935734;29;20036;-92
2023/04/03 14:37:24;;;;;;;8.60;6.75;;;11.90;99.90;;;;;;4935355;29;20040;-93
2023/04/03 14:39:53;;;;;;;10.07;6.25;;;11.80;99.90;;;;;;4916709;29;20029;-92
2023/04/03 14:42:27;;;;;;;6.45;5.85;;;11.90;99.90;;;;;;4900792;29;20032;-91
2023/04/03 14:44:54;;;;;;;9.23;4.95;;;11.90;99.90;;;;;;4900822;29;20028;-93
2023/04/03 14:47:24;;;;;;;7.05;4.60;;;12.00;99.90;;;;;;4901170;29;20028;-93
2023/04/03 14:49:51;;;;;;;8.10;3.90;;;12.00;99.90;;;;;;4900596;29;20475;-92
2023/04/03 14:52:35;;;;;;;5.55;3.30;;;12.00;99.90;;;;;;4900668;29;20024;-93
2023/04/03 14:55:05;;;;;;;4.57;2.80;;;12.00;99.90;;;;;;4900896;29;20072;-92
2023/04/03 14:57:33;;;;;;;6.90;4.00;;;12.00;99.90;;;;;;4901159;29;20028;-92
2023/04/03 15:00:01;;;;;;;7.90;3.95;;;12.00;99.90;;;;;;4900636;29;20107;-93
2023/04/03 15:02:37;;;;;;;11.63;4.20;;;12.00;99.90;;;;;;4900593;29;20032;-91
2023/04/03 15:05:08;;;;;;;8.20;3.58;;;11.90;99.90;;;;;;4900585;29;20039;-91
2023/04/03 15:07:41;;;;;;;5.97;4.60;;;12.00;99.90;;;;;;4901334;29;20032;-92
2023/04/03 15:10:29;;;;;;;5.47;4.00;;;11.90;99.90;;;;;;4919511;29;20042;-92